Time;durP1;ratioP1;P1;durP2;ratioP2;P2;SDS_P1;SDS_P2;PMS_P1;PMS_P2;Temp;Humidity;BMP_temperature;BMP_pressure;BME280_temperature;BME280_humidity;BME280_pressure;Samples;Min_cycle;Max_cycle;Signal;HPM_P1;HPM_P2
2020/12/10 00:01:46;;;;;;;3.60;2.65;;;;;;;22.66;46.09;94127.44;4946378;28;20034;-70
2020/12/10 00:04:12;;;;;;;4.10;2.50;;;;;;;22.63;45.81;94123.06;4962936;28;20042;-70
2020/12/10 00:06:37;;;;;;;3.97;2.22;;;;;;;22.55;46.15;94122.25;4962740;28;20023;-70
2020/12/10 00:09:03;;;;;;;3.28;2.10;;;;;;;22.59;46.43;94133.53;4965646;28;20047;-69
2020/12/10 00:11:28;;;;;;;3.53;2.15;;;;;;;22.58;45.98;94138.25;4960688;28;20027;-71
2020/12/10 00:13:54;;;;;;;3.40;2.20;;;;;;;22.55;46.21;94127.69;4963672;28;20042;-70
2020/12/10 00:16:19;;;;;;;3.15;2.03;;;;;;;22.55;46.01;94116.78;4964397;28;20031;-70
2020/12/10 00:18:44;;;;;;;3.55;2.17;;;;;;;22.53;46.24;94119.31;4964114;28;20041;-70
2020/12/10 00:21:10;;;;;;;3.08;2.40;;;;;;;22.49;46.49;94092.41;4979673;28;20046;-70
2020/12/10 00:23:35;;;;;;;3.25;2.33;;;;;;;22.49;46.46;94102.56;4963646;28;20035;-70
2020/12/10 00:26:01;;;;;;;3.58;2.30;;;;;;;22.51;46.04;94100.03;4962817;28;20030;-70
2020/12/10 00:28:26;;;;;;;3.28;2.50;;;;;;;22.46;46.28;94109.06;4967128;28;20026;-70
2020/12/10 00:30:52;;;;;;;3.28;2.22;;;;;;;22.44;46.29;94095.25;4965303;28;20073;-70
2020/12/10 00:33:17;;;;;;;3.55;2.08;;;;;;;22.41;46.32;94112.63;4965503;28;20411;-71
2020/12/10 00:35:42;;;;;;;3.00;2.10;;;;;;;22.39;46.26;94109.72;4961587;28;20118;-71
2020/12/10 00:38:08;;;;;;;3.35;2.42;;;;;;;22.38;46.61;94097.34;4960954;28;20738;-71
2020/12/10 00:40:34;;;;;;;2.95;2.05;;;;;;;22.38;46.40;94116.41;4964543;28;20035;-71
2020/12/10 00:42:59;;;;;;;4.20;2.13;;;;;;;22.36;46.56;94113.47;4962240;28;20043;-70
2020/12/10 00:45:24;;;;;;;4.22;2.38;;;;;;;22.35;46.53;94109.28;4961864;28;20065;-71
2020/12/10 00:47:50;;;;;;;3.08;2.42;;;;;;;22.32;46.52;94121.22;4960318;28;20030;-71
2020/12/10 00:50:16;;;;;;;3.20;2.10;;;;;;;22.32;46.42;94117.78;4963291;28;20077;-71
2020/12/10 00:52:42;;;;;;;3.50;2.10;;;;;;;22.33;46.58;94100.94;4963259;28;20050;-70
2020/12/10 00:55:08;;;;;;;3.72;2.50;;;;;;;22.28;46.54;94104.47;4962928;28;20405;-70
2020/12/10 00:57:33;;;;;;;3.47;2.25;;;;;;;22.28;46.33;94104.47;4943769;28;20046;-71
2020/12/10 00:59:59;;;;;;;3.90;2.30;;;;;;;22.26;46.75;94106.25;4963511;28;20121;-70
2020/12/10 01:02:25;;;;;;;3.45;2.40;;;;;;;22.25;46.57;94105.50;4964562;28;21807;-71
2020/12/10 01:04:50;;;;;;;3.25;2.20;;;;;;;22.23;46.76;94091.72;4962801;28;20034;-70
2020/12/10 01:07:16;;;;;;;3.25;2.42;;;;;;;22.23;46.60;94108.03;4964322;28;20038;-70
2020/12/10 01:09:41;;;;;;;2.90;2.15;;;;;;;22.21;46.47;94110.56;4962260;28;20042;-71
2020/12/10 01:12:07;;;;;;;3.67;2.20;;;;;;;22.20;46.64;94108.31;4975742;28;20038;-71
2020/12/10 01:14:32;;;;;;;3.42;2.20;;;;;;;22.19;46.51;94091.25;4961240;28;20039;-71
2020/12/10 01:16:58;;;;;;;3.58;2.15;;;;;;;22.18;46.78;94099.94;4962764;28;20038;-71
2020/12/10 01:19:23;;;;;;;3.13;2.10;;;;;;;22.19;46.23;94088.53;4961325;28;20058;-71
2020/12/10 01:21:49;;;;;;;3.85;2.22;;;;;;;22.14;46.39;94089.38;4964261;28;20030;-70
2020/12/10 01:24:14;;;;;;;4.07;2.50;;;;;;;22.14;46.47;94073.06;4964148;28;20031;-71
2020/12/10 01:26:42;;;;;;;3.72;2.28;;;;;;;22.14;46.53;94094.81;4962698;28;20042;-70
2020/12/10 01:29:08;;;;;;;3.20;2.40;;;;;;;22.13;46.41;94082.47;4960057;28;20109;-71
2020/12/10 01:31:33;;;;;;;2.85;2.20;;;;;;;22.12;46.35;94070.16;4961084;28;20046;-71
2020/12/10 01:33:58;;;;;;;3.67;2.42;;;;;;;22.11;46.57;94071.41;4964076;28;20034;-70
2020/12/10 01:36:25;;;;;;;2.97;2.25;;;;;;;22.10;46.40;94067.19;4959582;28;20031;-71
2020/12/10 01:38:50;;;;;;;3.47;2.47;;;;;;;22.10;46.55;94078.09;4959857;28;20118;-71
2020/12/10 01:41:17;;;;;;;3.33;2.25;;;;;;;22.08;46.54;94088.03;4962283;28;20133;-70
2020/12/10 01:43:42;;;;;;;3.42;2.17;;;;;;;22.08;46.59;94080.59;4978646;28;20098;-71
2020/12/10 01:46:08;;;;;;;3.70;2.22;;;;;;;22.09;46.52;94073.91;4961254;28;20034;-71
2020/12/10 01:48:33;;;;;;;4.03;2.17;;;;;;;22.07;46.62;94079.13;4963678;28;20023;-70
2020/12/10 01:50:59;;;;;;;3.47;2.40;;;;;;;22.06;46.56;94061.38;4961833;28;20109;-70
2020/12/10 01:53:24;;;;;;;3.53;2.22;;;;;;;22.02;46.46;94060.94;4962525;28;20043;-70
2020/12/10 01:55:50;;;;;;;3.90;2.55;;;;;;;22.04;46.54;94058.41;4962430;28;20039;-70
2020/12/10 01:58:15;;;;;;;3.85;2.40;;;;;;;22.01;46.59;94048.59;4963516;28;20038;-70
2020/12/10 02:00:41;;;;;;;4.45;2.63;;;;;;;22.01;46.79;94066.91;4960008;28;21640;-70
2020/12/10 02:03:06;;;;;;;3.80;2.40;;;;;;;22.01;46.47;94064.91;4963468;28;20030;-70
2020/12/10 02:05:31;;;;;;;3.72;2.40;;;;;;;21.96;46.39;94095.66;4961586;28;20043;-71
2020/12/10 02:07:57;;;;;;;3.67;2.50;;;;;;;21.99;46.50;94072.84;4960717;28;20063;-70
2020/12/10 02:10:22;;;;;;;4.43;2.33;;;;;;;21.96;46.50;94063.03;4962145;28;20027;-70
2020/12/10 02:12:48;;;;;;;3.35;2.40;;;;;;;21.96;46.54;94073.91;4960357;28;20435;-70
2020/12/10 02:15:15;;;;;;;4.30;2.60;;;;;;;21.95;46.26;94056.13;4963780;28;20604;-70
2020/12/10 02:17:41;;;;;;;4.15;2.80;;;;;;;21.92;46.66;94078.91;4960117;28;20023;-70
2020/12/10 02:20:06;;;;;;;3.38;2.40;;;;;;;21.92;46.82;94072.03;4976551;28;20041;-70
2020/12/10 02:22:31;;;;;;;4.13;2.40;;;;;;;21.91;46.39;94071.28;4959262;28;20041;-70
2020/12/10 02:24:57;;;;;;;3.33;2.30;;;;;;;21.92;46.61;94057.16;4961517;28;20093;-70
2020/12/10 02:27:23;;;;;;;3.53;2.42;;;;;;;21.90;46.50;94050.06;4960791;28;20034;-70
2020/12/10 02:29:48;;;;;;;4.05;2.55;;;;;;;21.91;46.61;94054.97;4963743;28;20037;-70
2020/12/10 02:32:13;;;;;;;3.53;2.50;;;;;;;21.89;46.47;94035.03;4960404;28;20039;-69
2020/12/10 02:34:39;;;;;;;2.65;2.00;;;;;;;21.88;46.71;94034.28;4961255;28;20031;-69
2020/12/10 02:37:04;;;;;;;3.65;2.20;;;;;;;21.89;46.49;94037.75;4957392;28;20037;-69
2020/12/10 02:39:30;;;;;;;3.10;2.30;;;;;;;21.89;46.52;94040.47;4963018;28;20021;-70
2020/12/10 02:41:55;;;;;;;3.88;2.40;;;;;;;21.90;46.55;94052.78;4958755;28;20043;-70
2020/12/10 02:44:20;;;;;;;3.22;2.13;;;;;;;21.88;46.50;94044.41;4974955;28;20035;-70
2020/12/10 02:46:46;;;;;;;3.15;2.30;;;;;;;21.89;46.51;94035.03;4961188;28;20027;-70
2020/12/10 02:49:11;;;;;;;3.55;2.30;;;;;;;21.88;46.97;94049.84;4961052;28;20034;-70
2020/12/10 02:51:41;;;;;;;3.65;2.60;;;;;;;21.88;46.48;94033.53;4962584;28;20031;-70
2020/12/10 02:54:06;;;;;;;3.38;2.33;;;;;;;21.86;46.50;94022.47;4961105;28;20034;-70
2020/12/10 02:56:32;;;;;;;3.72;2.40;;;;;;;21.84;46.54;94016.81;4959394;28;20039;-70
2020/12/10 02:58:57;;;;;;;3.28;2.20;;;;;;;21.84;46.42;94022.25;4963417;28;20153;-70
2020/12/10 03:01:23;;;;;;;4.15;2.70;;;;;;;21.81;46.37;94020.56;4961869;28;20089;-70
2020/12/10 03:03:48;;;;;;;4.15;2.50;;;;;;;21.78;46.61;94019.66;4960083;28;20027;-70
2020/12/10 03:06:14;;;;;;;3.65;2.40;;;;;;;21.82;46.29;94024.75;4960972;28;20042;-70
2020/12/10 03:08:40;;;;;;;3.45;2.47;;;;;;;21.82;46.54;94046.50;4964509;28;20027;-70
2020/12/10 03:11:05;;;;;;;3.90;2.22;;;;;;;21.82;46.43;94046.50;4964314;28;20043;-70
2020/12/10 03:13:30;;;;;;;2.97;2.03;;;;;;;21.79;46.25;94042.13;4964097;28;20031;-71
2020/12/10 03:15:56;;;;;;;3.20;2.17;;;;;;;21.80;46.32;94027.28;4964861;28;20035;-71
2020/12/10 03:18:21;;;;;;;2.55;2.00;;;;;;;21.79;46.31;94009.50;4963705;28;21156;-71
2020/12/10 03:20:47;;;;;;;3.45;2.50;;;;;;;21.78;46.47;94013.47;4964776;28;20404;-70
2020/12/10 03:23:12;;;;;;;4.35;2.40;;;;;;;21.76;46.53;94033.00;4965712;28;20030;-71
2020/12/10 03:25:38;;;;;;;3.13;2.15;;;;;;;21.76;46.27;94026.84;4966565;28;20572;-70
2020/12/10 03:28:03;;;;;;;3.33;2.28;;;;;;;21.75;46.30;94017.22;4964341;28;20487;-70
2020/12/10 03:30:29;;;;;;;4.05;2.70;;;;;;;21.76;46.16;94010.56;4965076;28;20109;-71
2020/12/10 03:32:54;;;;;;;4.35;2.42;;;;;;;21.76;46.30;94015.97;4963333;28;20050;-71
2020/12/10 03:35:20;;;;;;;3.63;2.28;;;;;;;21.72;46.15;93993.81;4966316;28;20495;-71
2020/12/10 03:37:45;;;;;;;3.30;2.20;;;;;;;21.74;46.29;94008.34;4962737;28;20019;-71
2020/12/10 03:40:10;;;;;;;3.50;2.45;;;;;;;21.73;46.32;94012.31;4964875;28;20053;-71
2020/12/10 03:42:36;;;;;;;3.35;2.38;;;;;;;21.77;46.20;94017.47;4980969;28;20027;-71
2020/12/10 03:45:01;;;;;;;3.38;2.30;;;;;;;21.74;46.04;94008.34;4964068;28;20117;-71
2020/12/10 03:47:27;;;;;;;3.55;2.25;;;;;;;21.73;46.31;94009.59;4962874;28;20029;-71
2020/12/10 03:49:52;;;;;;;3.20;2.38;;;;;;;21.78;46.20;94022.38;4961058;28;20120;-71
2020/12/10 03:52:18;;;;;;;4.57;2.50;;;;;;;21.90;46.19;94025.59;4961972;28;20027;-71
2020/12/10 03:54:43;;;;;;;3.10;2.20;;;;;;;21.92;46.38;94012.22;4962466;28;20529;-70
2020/12/10 03:57:09;;;;;;;3.70;2.42;;;;;;;21.98;46.11;94017.03;4965445;28;20042;-70
2020/12/10 03:59:34;;;;;;;3.20;2.35;;;;;;;22.02;46.12;94033.75;4963930;28;20491;-70
2020/12/10 04:02:00;;;;;;;3.63;2.40;;;;;;;22.08;45.95;94047.97;4965614;28;20023;-71
2020/12/10 04:04:25;;;;;;;3.78;2.42;;;;;;;22.11;45.97;94035.31;4964525;28;20035;-70
2020/12/10 04:06:50;;;;;;;3.55;2.42;;;;;;;22.12;45.81;94029.38;4964426;28;20042;-70
2020/12/10 04:09:16;;;;;;;3.50;2.53;;;;;;;22.12;45.89;94037.53;4963569;28;20031;-70
2020/12/10 04:11:41;;;;;;;3.97;2.47;;;;;;;22.17;45.84;94023.09;4980061;28;20031;-70
2020/12/10 04:14:07;;;;;;;3.13;2.10;;;;;;;22.19;45.92;94012.41;4976409;28;20019;-70
2020/12/10 04:16:32;;;;;;;3.42;2.10;;;;;;;22.19;46.03;94031.44;4979313;28;20448;-70
2020/12/10 04:18:58;;;;;;;3.55;2.38;;;;;;;22.22;45.69;94049.44;4963245;28;20027;-70
2020/12/10 04:21:24;;;;;;;3.53;2.58;;;;;;;22.26;45.75;94030.84;4964265;28;20027;-70
2020/12/10 04:23:49;;;;;;;3.83;2.40;;;;;;;22.27;45.57;94048.63;4959536;28;20027;-71
2020/12/10 04:26:15;;;;;;;3.35;2.20;;;;;;;22.31;45.50;94054.47;4975842;28;20393;-70
2020/12/10 04:28:42;;;;;;;3.70;2.28;;;;;;;22.32;45.59;94050.50;4964875;28;20031;-70
2020/12/10 04:31:07;;;;;;;2.90;1.85;;;;;;;22.35;45.58;94041.28;4963964;28;20031;-71
2020/12/10 04:33:32;;;;;;;3.35;2.10;;;;;;;22.37;45.27;94046.94;4963173;28;20023;-71
2020/12/10 04:35:58;;;;;;;2.92;1.83;;;;;;;22.42;45.12;94037.94;4963884;28;20765;-71
2020/12/10 04:38:23;;;;;;;3.47;2.10;;;;;;;22.43;44.97;94033.94;4976533;28;20030;-71
2020/12/10 04:40:49;;;;;;;3.40;2.05;;;;;;;22.45;44.99;94039.56;4959935;28;20031;-72
2020/12/10 04:43:15;;;;;;;3.28;2.20;;;;;;;22.50;45.14;94055.06;4947443;28;20027;-73
2020/12/10 04:45:41;;;;;;;2.85;1.92;;;;;;;22.52;45.07;94063.44;4963486;28;20061;-74
2020/12/10 04:48:06;;;;;;;2.88;1.88;;;;;;;22.50;44.94;94039.47;4962790;28;20023;-74
2020/12/10 04:50:35;;;;;;;2.75;1.88;;;;;;;22.53;44.92;94043.13;4963867;28;20396;-74
2020/12/10 04:53:00;;;;;;;2.80;2.08;;;;;;;22.53;44.77;94043.13;4961720;28;20100;-74
2020/12/10 04:55:26;;;;;;;2.35;1.83;;;;;;;22.56;45.10;94036.66;4962252;28;20427;-74
2020/12/10 04:57:52;;;;;;;2.75;1.88;;;;;;;22.58;45.04;94029.41;4962231;28;20043;-73
2020/12/10 05:00:19;;;;;;;3.38;2.45;;;;;;;22.58;44.90;94012.34;4965858;28;20046;-74
2020/12/10 05:02:47;;;;;;;3.17;2.00;;;;;;;22.61;44.75;94011.28;4962816;28;20035;-73
2020/12/10 05:05:34;;;;;;;3.25;1.85;;;;;;;22.62;44.76;94037.25;4964154;28;20415;-73
2020/12/10 05:08:01;;;;;;;2.75;1.83;;;;;;;22.63;44.90;94036.72;4961630;28;20043;-74
2020/12/10 05:10:26;;;;;;;3.13;2.10;;;;;;;22.63;44.74;94035.97;4963939;28;20038;-74
2020/12/10 05:13:10;;;;;;;3.15;2.20;;;;;;;22.65;44.87;94038.94;4961739;28;20035;-73
2020/12/10 05:15:36;;;;;;;2.70;1.85;;;;;;;22.66;44.69;94034.94;4962949;28;20065;-73
2020/12/10 05:18:08;;;;;;;3.40;2.10;;;;;;;22.67;44.54;94030.94;4961065;28;20039;-75
2020/12/10 05:20:41;;;;;;;2.90;2.05;;;;;;;22.66;45.05;94046.56;4961067;28;20034;-76
2020/12/10 05:23:09;;;;;;;3.28;2.10;;;;;;;22.69;44.35;94028.44;4963556;28;20042;-74
2020/12/10 05:25:47;;;;;;;3.03;2.10;;;;;;;22.69;44.71;94033.88;4962821;28;20110;-75
2020/12/10 05:28:13;;;;;;;3.28;2.05;;;;;;;22.71;44.83;94053.88;4961553;28;20149;-74
2020/12/10 05:30:39;;;;;;;2.65;2.00;;;;;;;22.75;44.78;94056.25;4963076;28;20041;-73
2020/12/10 05:33:12;;;;;;;3.25;2.00;;;;;;;22.77;44.96;94029.25;4964287;28;20030;-74
2020/12/10 05:35:37;;;;;;;3.65;2.17;;;;;;;22.79;44.50;94010.41;4961302;28;20030;-73
2020/12/10 05:38:08;;;;;;;3.50;2.17;;;;;;;22.85;44.49;94024.63;4962136;28;20530;-75
2020/12/10 05:40:34;;;;;;;2.83;2.00;;;;;;;22.88;44.59;94030.47;4963054;28;20039;-75
2020/12/10 05:42:59;;;;;;;3.05;1.80;;;;;;;22.94;44.31;94047.44;4960588;28;20038;-75
2020/12/10 05:45:24;;;;;;;3.22;1.90;;;;;;;23.00;44.41;94031.72;4961331;28;20050;-75
2020/12/10 05:47:54;;;;;;;3.00;1.98;;;;;;;23.03;44.34;94041.53;4977043;28;20030;-73
2020/12/10 05:50:27;;;;;;;4.70;2.20;;;;;;;23.13;44.16;94067.03;4977014;28;20043;-73
2020/12/10 05:53:05;;;;;;;3.28;2.10;;;;;;;23.20;43.98;94060.94;4962487;28;20073;-72
2020/12/10 05:55:32;;;;;;;3.38;2.17;;;;;;;23.25;44.05;94051.19;4961844;28;20039;-71
2020/12/10 05:57:57;;;;;;;3.17;2.05;;;;;;;23.33;43.42;94069.03;4963036;28;20515;-73
2020/12/10 06:00:23;;;;;;;2.85;1.80;;;;;;;23.38;43.34;94065.47;4963335;28;20069;-72
2020/12/10 06:02:50;;;;;;;2.88;2.20;;;;;;;23.45;43.29;94053.88;4962516;28;20042;-73
2020/12/10 06:05:15;;;;;;;3.58;1.88;;;;;;;23.55;43.06;94063.06;4961721;28;20511;-72
2020/12/10 06:08:03;;;;;;;2.60;1.80;;;;;;;23.63;42.74;94074.75;4976920;28;20031;-73
2020/12/10 06:10:29;;;;;;;3.70;2.15;;;;;;;23.69;42.82;94061.75;4963160;28;20035;-76
2020/12/10 06:12:54;;;;;;;2.92;1.60;;;;;;;23.75;42.57;94062.34;4962162;28;20518;-74
2020/12/10 06:15:24;;;;;;;2.97;1.90;;;;;;;23.81;42.79;94062.94;4977126;28;20077;-72
2020/12/10 06:18:02;;;;;;;2.75;1.90;;;;;;;23.86;42.81;94066.25;4969249;28;20118;-72
2020/12/10 06:20:46;;;;;;;2.47;1.65;;;;;;;23.93;42.21;94070.28;4961542;28;20042;-74
2020/12/10 06:23:28;;;;;;;3.15;2.25;;;;;;;23.98;42.50;94072.88;4960593;28;20066;-74
2020/12/10 06:25:55;;;;;;;2.45;1.80;;;;;;;24.03;42.04;94074.72;4963005;28;20035;-73
2020/12/10 06:28:24;;;;;;;3.03;2.00;;;;;;;24.11;41.97;94075.50;4962849;28;20034;-74
2020/12/10 06:31:09;;;;;;;2.75;2.10;;;;;;;24.14;42.27;94085.34;4964743;28;20030;-73
2020/12/10 06:33:44;;;;;;;2.72;1.70;;;;;;;24.14;42.31;94079.91;4962928;28;20054;-74
2020/12/10 06:36:29;;;;;;;3.40;2.35;;;;;;;24.20;41.82;94066.84;4961880;28;20049;-72
2020/12/10 06:38:55;;;;;;;2.10;1.75;;;;;;;24.25;41.76;94073.41;4962403;28;20050;-71
2020/12/10 06:41:21;;;;;;;2.90;1.80;;;;;;;24.29;42.02;94074.53;4944939;28;20038;-73
2020/12/10 06:43:47;;;;;;;2.97;1.92;;;;;;;24.37;41.80;94080.78;4958808;28;20089;-72
2020/12/10 06:46:12;;;;;;;2.33;1.60;;;;;;;24.46;41.32;94083.00;4963383;28;20460;-71
2020/12/10 06:48:41;;;;;;;3.80;1.92;;;;;;;24.49;41.71;94099.03;4961755;28;20035;-70
2020/12/10 06:51:10;;;;;;;2.90;2.00;;;;;;;24.52;41.65;94099.97;4962320;28;20023;-71
2020/12/10 06:53:36;;;;;;;2.55;1.80;;;;;;;24.53;41.10;94090.50;4958727;28;20027;-70
2020/12/10 06:56:04;;;;;;;2.40;1.58;;;;;;;24.52;41.18;94080.84;4959526;28;20035;-71
2020/12/10 06:58:37;;;;;;;3.00;1.98;;;;;;;24.52;41.46;94086.31;4961027;28;20057;-71
2020/12/10 07:01:21;;;;;;;3.40;1.92;;;;;;;24.58;41.00;94095.06;4963799;28;20046;-71
2020/12/10 07:03:47;;;;;;;3.30;2.22;;;;;;;24.62;41.13;94068.16;4944816;28;20047;-71
2020/12/10 07:06:20;;;;;;;3.40;2.25;;;;;;;24.68;40.86;94071.44;4925150;29;20358;-71
2020/12/10 07:09:01;;;;;;;3.67;1.83;;;;;;;24.76;40.67;94088.59;4941556;29;20034;-72
2020/12/10 07:14:38;;;;;;;3.03;1.70;;;;;;;24.83;40.39;94072.97;4936540;23;20145;-76
2020/12/10 07:17:10;;;;;;;2.67;1.75;;;;;;;24.92;40.49;94085.41;4942032;28;20027;-75
2020/12/10 07:19:35;;;;;;;3.47;2.10;;;;;;;24.98;40.38;94067.56;4946702;28;20035;-78
2020/12/10 07:22:00;;;;;;;3.60;1.67;;;;;;;25.01;40.51;94066.50;4942290;28;20054;-79
2020/12/10 07:24:26;;;;;;;4.78;1.63;;;;;;;25.09;40.06;94100.03;4943191;28;20039;-75
2020/12/10 07:26:52;;;;;;;3.85;2.00;;;;;;;25.14;39.90;94112.81;4955923;28;20051;-76
2020/12/10 07:29:18;;;;;;;4.13;1.85;;;;;;;25.12;40.04;94098.94;4940158;29;20023;-75
2020/12/10 07:31:43;;;;;;;3.25;1.98;;;;;;;25.05;40.02;94083.28;4941344;28;20134;-76
2020/12/10 07:34:11;;;;;;;3.03;1.90;;;;;;;25.08;40.04;94098.59;4941932;28;20035;-74
2020/12/10 07:36:44;;;;;;;2.78;1.70;;;;;;;25.06;40.63;94106.56;4924288;29;20429;-75
2020/12/10 07:39:10;;;;;;;3.22;1.77;;;;;;;25.03;40.76;94091.28;4942593;28;20035;-76
2020/12/10 07:41:39;;;;;;;2.78;1.77;;;;;;;24.97;40.91;94082.47;4941506;29;23829;-75
2020/12/10 07:44:04;;;;;;;4.65;2.13;;;;;;;24.93;40.98;94095.78;4911529;29;20035;-75
2020/12/10 07:46:36;;;;;;;3.40;1.98;;;;;;;24.89;41.31;94086.47;4942315;28;20054;-77
2020/12/10 07:49:02;;;;;;;3.42;2.40;;;;;;;24.92;41.13;94075.19;4941306;28;20050;-78
2020/12/10 07:51:28;;;;;;;3.55;2.20;;;;;;;24.91;41.70;94078.47;4942577;28;20059;-75
2020/12/10 07:54:00;;;;;;;3.72;2.10;;;;;;;24.90;42.02;94088.66;4942951;28;20509;-77
2020/12/10 07:56:28;;;;;;;3.85;1.73;;;;;;;24.86;42.00;94106.69;4930064;29;20095;-75
2020/12/10 07:59:15;;;;;;;3.72;2.20;;;;;;;24.85;41.96;94105.22;4929346;29;20402;-75
2020/12/10 08:01:44;;;;;;;4.60;2.40;;;;;;;24.80;42.16;94105.34;4946607;29;20518;-75
2020/12/10 08:04:14;;;;;;;6.32;2.05;;;;;;;24.74;42.09;94102.06;4944988;28;20754;-76
2020/12/10 08:06:39;;;;;;;3.60;1.95;;;;;;;24.71;42.71;94103.13;4944591;28;20042;-77
2020/12/10 08:09:06;;;;;;;5.63;2.03;;;;;;;24.73;42.27;94095.16;4931017;29;20114;-76
2020/12/10 08:11:32;;;;;;;3.28;2.17;;;;;;;24.73;42.34;94095.88;4944009;29;20031;-76
2020/12/10 08:14:02;;;;;;;2.70;1.70;;;;;;;24.69;42.25;94100.22;4945836;29;20447;-79
2020/12/10 08:16:37;;;;;;;3.42;2.10;;;;;;;24.73;41.75;94111.53;4929843;29;20035;-77
2020/12/10 08:19:18;;;;;;;4.40;2.40;;;;;;;24.71;41.83;94106.59;4943969;28;20058;-76
2020/12/10 08:21:45;;;;;;;2.70;2.00;;;;;;;24.67;41.48;94113.69;4944573;29;20059;-77
2020/12/10 08:24:12;;;;;;;3.42;1.90;;;;;;;24.64;41.89;94103.84;4931087;29;20023;-78
2020/12/10 08:26:38;;;;;;;4.05;2.22;;;;;;;24.57;41.98;94071.78;4960054;28;20038;-76
2020/12/10 08:29:04;;;;;;;3.40;1.90;;;;;;;24.52;41.44;94075.41;4943998;28;20578;-75
2020/12/10 08:31:29;;;;;;;4.50;2.08;;;;;;;24.54;41.65;94083.78;4928931;29;20027;-76
2020/12/10 08:33:56;;;;;;;4.10;2.30;;;;;;;24.49;41.29;94081.94;4928801;29;20031;-75
2020/12/10 08:36:32;;;;;;;3.40;1.95;;;;;;;24.49;41.81;94090.13;4943645;29;20023;-76
2020/12/10 08:38:59;;;;;;;3.42;1.95;;;;;;;24.47;41.32;94103.59;4944142;29;20485;-75
2020/12/10 08:41:32;;;;;;;3.40;2.38;;;;;;;24.45;41.68;94093.22;4944725;29;20031;-75
2020/12/10 08:44:05;;;;;;;3.78;2.22;;;;;;;24.44;41.52;94101.94;4961260;28;20533;-76
2020/12/10 08:46:32;;;;;;;3.65;2.35;;;;;;;24.43;41.40;94105.91;4948238;28;20031;-76
2020/12/10 08:49:19;;;;;;;3.47;1.92;;;;;;;24.45;41.58;94087.00;4947816;28;20035;-76
2020/12/10 08:51:46;;;;;;;4.65;2.22;;;;;;;24.35;41.28;94062.22;4944018;29;20039;-76
2020/12/10 08:54:11;;;;;;;3.38;1.83;;;;;;;24.43;41.46;94062.25;4943950;29;20058;-76
2020/12/10 08:56:38;;;;;;;4.40;2.30;;;;;;;24.39;41.66;94056.41;4928131;29;20416;-76
2020/12/10 08:59:04;;;;;;;2.60;1.95;;;;;;;24.38;41.58;94060.41;4928008;29;20039;-77
2020/12/10 09:01:31;;;;;;;3.83;2.15;;;;;;;24.38;41.23;94076.78;4943529;29;20065;-77
2020/12/10 09:03:56;;;;;;;3.22;2.08;;;;;;;24.36;41.69;94073.84;4943623;29;20031;-76
2020/12/10 09:06:23;;;;;;;3.45;2.20;;;;;;;24.33;41.84;94064.00;4960150;28;20491;-75
2020/12/10 09:08:51;;;;;;;5.05;2.10;;;;;;;24.35;41.53;94058.75;4943913;29;20205;-75
2020/12/10 09:11:17;;;;;;;3.95;2.45;;;;;;;24.34;41.81;94054.56;4958539;28;20035;-76
2020/12/10 09:13:42;;;;;;;3.92;2.00;;;;;;;24.33;41.87;94055.81;4943701;28;20048;-77
2020/12/10 09:16:09;;;;;;;3.95;2.50;;;;;;;24.32;41.48;94062.53;4960587;28;20027;-76
2020/12/10 09:18:34;;;;;;;3.45;2.08;;;;;;;24.33;41.84;94058.56;4945281;28;20073;-78
2020/12/10 09:21:00;;;;;;;3.25;2.00;;;;;;;24.31;41.49;94043.97;4951876;28;20036;-77
2020/12/10 09:23:26;;;;;;;3.80;2.08;;;;;;;24.30;42.14;94043.22;4947874;28;21353;-76
2020/12/10 09:25:52;;;;;;;3.40;2.30;;;;;;;24.30;42.12;94026.84;4945223;28;20027;-84
2020/12/10 09:28:17;;;;;;;4.05;2.22;;;;;;;24.30;41.88;94032.31;4943558;28;20046;-77
2020/12/10 09:30:43;;;;;;;4.90;2.20;;;;;;;24.25;41.85;94029.75;4942985;28;20028;-79
2020/12/10 09:33:08;;;;;;;3.35;2.22;;;;;;;24.22;42.19;94037.00;4943510;28;20035;-78
2020/12/10 09:35:34;;;;;;;4.10;2.22;;;;;;;24.21;41.85;94043.72;4926920;29;20538;-78
2020/12/10 09:38:01;;;;;;;3.47;2.22;;;;;;;24.16;42.12;94044.63;4926956;29;20042;-79
2020/12/10 09:40:27;;;;;;;3.58;2.30;;;;;;;24.12;42.04;94049.69;4946024;28;20031;-77
2020/12/10 09:42:52;;;;;;;3.88;2.50;;;;;;;24.17;42.05;94051.53;4928043;28;20026;-77
2020/12/10 09:45:18;;;;;;;4.10;2.10;;;;;;;24.18;42.12;94066.63;4943925;29;20038;-78
2020/12/10 09:47:47;;;;;;;3.85;2.35;;;;;;;24.20;42.34;94057.91;4926000;29;20035;-75
2020/12/10 09:50:22;;;;;;;3.90;2.20;;;;;;;24.20;42.16;94055.19;4944454;28;20028;-76
2020/12/10 09:53:10;;;;;;;3.45;2.20;;;;;;;24.15;41.88;94064.97;4938612;29;20042;-79
2020/12/10 09:58:15;;;;;;;4.07;1.92;;;;;;;24.12;42.49;94054.41;4943230;29;20093;-75
2020/12/10 10:00:41;;;;;;;3.95;2.33;;;;;;;24.08;42.83;94054.75;4943070;29;20495;-75
2020/12/10 10:03:07;;;;;;;3.72;2.20;;;;;;;24.07;42.54;94052.56;4941746;29;20423;-75
2020/12/10 10:05:33;;;;;;;4.18;1.92;;;;;;;24.03;42.52;94047.44;4943132;28;20031;-76
2020/12/10 10:07:59;;;;;;;3.75;2.40;;;;;;;24.02;42.87;94051.44;4942953;28;20031;-75
2020/12/10 10:10:24;;;;;;;3.35;1.90;;;;;;;24.00;42.62;94051.25;4926164;29;20407;-75
2020/12/10 10:12:50;;;;;;;3.95;2.35;;;;;;;24.02;42.72;94050.69;4926648;29;20411;-75
2020/12/10 10:15:17;;;;;;;4.15;2.75;;;;;;;23.99;43.03;94051.78;4945884;29;20035;-75
2020/12/10 10:17:42;;;;;;;4.47;2.20;;;;;;;23.96;42.87;94037.22;4943109;28;20023;-75
2020/12/10 10:20:08;;;;;;;4.63;2.30;;;;;;;23.90;43.02;94023.00;4958995;28;20097;-75
2020/12/10 10:22:38;;;;;;;4.70;2.60;;;;;;;23.89;43.18;94016.09;4958628;28;20066;-76
2020/12/10 10:25:03;;;;;;;5.07;2.30;;;;;;;23.84;43.09;94001.88;4945060;28;20086;-76
2020/12/10 10:27:29;;;;;;;14.05;3.33;;;;;;;23.84;42.80;94007.31;4941923;29;20032;-77
2020/12/10 10:29:54;;;;;;;13.85;2.70;;;;;;;23.89;43.17;94004.47;4926723;29;20102;-76
2020/12/10 10:32:20;;;;;;;7.07;2.60;;;;;;;23.88;43.25;94009.19;4943236;29;20046;-75
2020/12/10 10:34:45;;;;;;;8.57;2.90;;;;;;;23.88;43.20;94003.00;4942367;29;20035;-74
2020/12/10 10:37:11;;;;;;;6.40;2.58;;;;;;;23.85;43.38;94003.34;4942010;29;20031;-75
2020/12/10 10:39:36;;;;;;;7.25;2.42;;;;;;;23.81;43.38;93997.50;4943039;29;20122;-76
2020/12/10 10:42:02;;;;;;;6.85;2.88;;;;;;;23.81;44.05;93997.50;4926233;29;20086;-75
2020/12/10 10:44:28;;;;;;;8.80;2.13;;;;;;;23.79;43.93;94005.50;4959926;28;20512;-78
2020/12/10 10:46:53;;;;;;;5.78;2.30;;;;;;;23.82;43.68;94009.88;4959961;28;20023;-77
2020/12/10 10:49:19;;;;;;;5.68;2.70;;;;;;;23.87;43.68;94012.47;4929416;29;20036;-77
2020/12/10 10:51:47;;;;;;;5.90;2.38;;;;;;;23.87;43.86;94007.00;4958273;28;20027;-77
2020/12/10 10:54:13;;;;;;;5.63;2.33;;;;;;;23.87;44.07;94002.28;4942172;29;20031;-77
2020/12/10 10:56:41;;;;;;;5.38;2.42;;;;;;;23.89;44.09;94002.47;4928124;29;20034;-82
2020/12/10 10:59:07;;;;;;;8.93;2.42;;;;;;;23.89;43.60;93999.72;4942012;29;20050;-77
2020/12/10 11:01:33;;;;;;;6.38;3.05;;;;;;;23.94;43.76;93998.84;4926073;29;20046;-75
2020/12/10 11:03:58;;;;;;;6.32;2.40;;;;;;;23.96;43.85;94003.75;4943110;29;20114;-76
2020/12/10 11:06:23;;;;;;;6.20;3.05;;;;;;;23.99;43.39;93997.97;4958419;28;20093;-74
2020/12/10 11:08:49;;;;;;;4.53;2.38;;;;;;;24.03;43.66;93990.16;4959862;28;20043;-75
2020/12/10 11:11:19;;;;;;;5.93;2.50;;;;;;;24.08;43.18;94002.94;4958385;28;20132;-77
2020/12/10 11:13:45;;;;;;;7.05;2.65;;;;;;;24.12;43.09;93997.84;4942650;28;20039;-76
2020/12/10 11:16:11;;;;;;;4.60;2.30;;;;;;;24.18;43.21;93998.41;4945777;29;20032;-77
2020/12/10 11:18:36;;;;;;;6.18;2.83;;;;;;;24.23;42.97;93994.09;4963964;28;20038;-75
2020/12/10 11:21:02;;;;;;;6.80;2.75;;;;;;;24.30;42.62;93988.66;4965979;28;20035;-75
2020/12/10 11:23:27;;;;;;;6.53;2.90;;;;;;;24.34;42.18;93978.16;4958930;28;20027;-77
2020/12/10 11:25:53;;;;;;;3.67;2.40;;;;;;;24.40;42.62;93986.91;4942918;29;20023;-76
2020/12/10 11:28:18;;;;;;;5.28;2.45;;;;;;;24.43;41.99;93983.09;4946027;28;20805;-76
2020/12/10 11:30:44;;;;;;;4.53;2.63;;;;;;;24.48;41.89;93982.97;4946988;28;20062;-75
2020/12/10 11:33:10;;;;;;;4.90;2.80;;;;;;;24.53;42.22;93984.06;4946828;29;20035;-76
2020/12/10 11:35:35;;;;;;;5.40;3.20;;;;;;;24.59;41.78;93976.44;4946862;29;20454;-77
2020/12/10 11:38:01;;;;;;;5.25;2.75;;;;;;;24.63;42.01;93971.34;4946367;28;20045;-75
2020/12/10 11:40:26;;;;;;;4.78;2.70;;;;;;;24.69;41.39;93963.72;4946589;29;20487;-75